Time;durP1;ratioP1;P1;durP2;ratioP2;P2;SDS_P1;SDS_P2;PMS_P1;PMS_P2;Temp;Humidity;BMP_temperature;BMP_pressure;BME280_temperature;BME280_humidity;BME280_pressure;Samples;Min_cycle;Max_cycle;Signal;HPM_P1;HPM_P2
2024/01/05 00:00:49;;;;;;;0.20;0.20;;;11.30;99.90;;;;;;5052254;28;20029;-72
2024/01/05 00:03:15;;;;;;;2.03;0.35;;;11.30;99.90;;;;;;5053621;28;20020;-73
2024/01/05 00:05:40;;;;;;;0.10;0.10;;;11.20;99.90;;;;;;5053202;28;20403;-72
2024/01/05 00:08:06;;;;;;;1.17;0.57;;;11.20;99.90;;;;;;5035501;28;20021;-73
2024/01/05 00:10:32;;;;;;;0.95;0.50;;;11.20;99.90;;;;;;5052687;28;20478;-73
2024/01/05 00:12:58;;;;;;;0.70;0.65;;;11.30;99.90;;;;;;5053665;28;20049;-74
2024/01/05 00:15:24;;;;;;;22.58;1.95;;;11.20;99.90;;;;;;5052882;28;20049;-73
2024/01/05 00:17:49;;;;;;;2.40;0.65;;;11.20;99.90;;;;;;5035448;28;20025;-73
2024/01/05 00:20:16;;;;;;;2.63;0.93;;;11.10;99.90;;;;;;5053247;28;20470;-73
2024/01/05 00:22:41;;;;;;;2.45;0.47;;;11.20;99.90;;;;;;5035049;28;20033;-73
2024/01/05 00:25:07;;;;;;;0.25;0.25;;;11.20;99.90;;;;;;5052959;28;20393;-72
2024/01/05 00:27:33;;;;;;;1.17;0.68;;;11.20;99.90;;;;;;5052789;28;20029;-72
2024/01/05 00:29:59;;;;;;;0.88;0.43;;;11.20;99.90;;;;;;5053225;28;20119;-73
2024/01/05 00:32:25;;;;;;;4.32;0.63;;;11.10;99.90;;;;;;5018698;28;20025;-73
2024/01/05 00:34:51;;;;;;;0.08;0.08;;;11.10;99.90;;;;;;5035217;28;20021;-73
2024/01/05 00:37:17;;;;;;;2.53;0.52;;;11.20;99.90;;;;;;5052879;28;20071;-73
2024/01/05 00:39:43;;;;;;;0.80;0.43;;;11.10;99.90;;;;;;5052838;28;20104;-73
2024/01/05 00:42:08;;;;;;;5.25;0.52;;;11.10;99.90;;;;;;5052740;28;20382;-73
2024/01/05 00:44:34;;;;;;;2.65;0.63;;;11.10;99.90;;;;;;5052867;28;20021;-73
2024/01/05 00:47:00;;;;;;;7.50;1.30;;;11.10;99.90;;;;;;5052615;28;20056;-73
2024/01/05 00:49:26;;;;;;;0.90;0.50;;;11.10;99.90;;;;;;5052763;28;20412;-73
2024/01/05 00:51:52;;;;;;;1.85;0.65;;;11.10;99.90;;;;;;5034582;28;20100;-73
2024/01/05 00:54:18;;;;;;;4.43;1.73;;;11.00;99.90;;;;;;5052823;28;20037;-73
2024/01/05 00:56:44;;;;;;;1.38;0.45;;;11.00;99.90;;;;;;5052384;28;20488;-73
2024/01/05 00:59:12;;;;;;;1.08;0.75;;;11.00;99.90;;;;;;5052640;28;20393;-73
2024/01/05 01:01:38;;;;;;;0.40;0.40;;;11.10;99.90;;;;;;5052534;28;20041;-73
2024/01/05 01:04:04;;;;;;;4.30;0.93;;;11.00;99.90;;;;;;5052538;28;20040;-73
2024/01/05 01:06:31;;;;;;;1.75;0.77;;;11.00;99.90;;;;;;5052195;28;20036;-73
2024/01/05 01:08:57;;;;;;;0.00;0.00;;;11.00;99.90;;;;;;5052402;28;20071;-73
2024/01/05 01:11:24;;;;;;;1.25;0.55;;;11.10;99.90;;;;;;5052411;28;20104;-72
2024/01/05 01:13:49;;;;;;;0.10;0.10;;;11.10;99.90;;;;;;5052447;28;20466;-73
2024/01/05 01:16:15;;;;;;;4.47;1.13;;;11.10;99.90;;;;;;5052649;28;20116;-73
2024/01/05 01:18:41;;;;;;;7.00;0.70;;;11.00;99.90;;;;;;5052511;28;20031;-73
2024/01/05 01:21:07;;;;;;;5.47;1.08;;;11.00;99.90;;;;;;5055057;28;20021;-73
2024/01/05 01:23:36;;;;;;;2.33;0.50;;;11.00;99.90;;;;;;5056335;28;20060;-72
2024/01/05 01:26:02;;;;;;;3.00;0.47;;;10.90;99.90;;;;;;5056614;28;20049;-72
2024/01/05 01:28:28;;;;;;;0.28;0.28;;;10.90;99.90;;;;;;5056327;28;20428;-72
2024/01/05 01:30:54;;;;;;;2.22;0.55;;;11.00;99.90;;;;;;5056580;28;20024;-72
2024/01/05 01:33:19;;;;;;;1.55;0.52;;;11.00;99.90;;;;;;5056096;28;20041;-73
2024/01/05 01:35:46;;;;;;;2.00;1.90;;;10.90;99.90;;;;;;5056061;28;20040;-73
2024/01/05 01:38:12;;;;;;;0.05;0.05;;;11.00;99.90;;;;;;5042105;28;20021;-72
2024/01/05 01:40:37;;;;;;;0.20;0.20;;;11.10;99.90;;;;;;5056137;28;20052;-72
2024/01/05 01:43:03;;;;;;;7.10;1.30;;;10.90;99.90;;;;;;5056005;28;20428;-72
2024/01/05 01:45:30;;;;;;;9.00;0.63;;;10.90;99.90;;;;;;5056108;28;20401;-73
2024/01/05 01:47:56;;;;;;;0.63;0.63;;;10.90;99.90;;;;;;5038184;28;20034;-73
2024/01/05 01:50:24;;;;;;;8.20;1.10;;;10.90;99.90;;;;;;5055438;28;20379;-73
2024/01/05 01:52:54;;;;;;;0.85;0.65;;;10.90;99.90;;;;;;5055947;28;20024;-73
2024/01/05 01:55:19;;;;;;;4.47;0.30;;;10.90;99.90;;;;;;5055828;28;20029;-72
2024/01/05 01:57:49;;;;;;;0.00;0.00;;;10.90;99.90;;;;;;5055936;28;20020;-72
2024/01/05 02:00:17;;;;;;;5.45;0.40;;;11.00;99.90;;;;;;5037640;28;20028;-72
2024/01/05 02:02:46;;;;;;;1.52;0.40;;;11.10;99.90;;;;;;5055883;28;20044;-72
2024/01/05 02:05:13;;;;;;;1.85;0.65;;;10.90;99.90;;;;;;5053171;28;20103;-72
2024/01/05 02:07:38;;;;;;;0.55;0.38;;;11.00;99.90;;;;;;5055525;28;20133;-73
2024/01/05 02:10:05;;;;;;;0.00;0.00;;;11.00;99.90;;;;;;5055534;28;20031;-72
2024/01/05 02:12:30;;;;;;;1.13;0.55;;;11.00;99.90;;;;;;5055515;28;20021;-73
2024/01/05 02:14:56;;;;;;;4.95;1.27;;;11.00;99.90;;;;;;5037785;28;20032;-73
2024/01/05 02:17:33;;;;;;;0.03;0.03;;;11.00;99.90;;;;;;5054090;28;20098;-72
2024/01/05 02:20:00;;;;;;;6.55;0.80;;;11.00;99.90;;;;;;5037322;28;20112;-72
2024/01/05 02:22:32;;;;;;;1.25;0.85;;;11.00;99.90;;;;;;5037241;28;20440;-72
2024/01/05 02:24:58;;;;;;;5.93;0.82;;;11.00;99.90;;;;;;5041911;28;20029;-72
2024/01/05 02:27:25;;;;;;;6.15;0.77;;;11.00;99.90;;;;;;5055427;28;20044;-72
2024/01/05 02:29:51;;;;;;;10.10;0.80;;;11.00;99.90;;;;;;5055060;28;20017;-73
2024/01/05 02:32:17;;;;;;;1.10;0.98;;;11.00;99.90;;;;;;5054858;28;20017;-73
2024/01/05 02:34:43;;;;;;;0.38;0.25;;;11.00;99.90;;;;;;5054527;28;20101;-72
2024/01/05 02:37:09;;;;;;;0.17;0.17;;;11.00;99.90;;;;;;5037808;28;20056;-73
2024/01/05 02:39:35;;;;;;;0.28;0.20;;;11.00;99.90;;;;;;5055073;28;20504;-73
2024/01/05 02:42:07;;;;;;;4.20;1.85;;;11.00;99.90;;;;;;5055287;28;20036;-73
2024/01/05 02:44:33;;;;;;;16.15;1.13;;;11.00;99.90;;;;;;5037232;28;20055;-73
2024/01/05 02:46:59;;;;;;;2.40;0.93;;;10.90;99.90;;;;;;5054848;28;20041;-73
2024/01/05 02:49:25;;;;;;;0.90;0.20;;;10.90;99.90;;;;;;5054697;28;20021;-73
2024/01/05 02:51:54;;;;;;;10.32;0.43;;;10.90;99.90;;;;;;5054912;28;20171;-73
2024/01/05 02:54:20;;;;;;;0.82;0.40;;;10.90;99.90;;;;;;5054881;28;20021;-73
2024/01/05 02:56:46;;;;;;;9.48;1.17;;;10.90;99.90;;;;;;5036724;28;20036;-73
2024/01/05 02:59:12;;;;;;;0.22;0.20;;;10.90;99.90;;;;;;5054701;28;20061;-73
2024/01/05 03:01:37;;;;;;;0.55;0.55;;;11.00;99.90;;;;;;5054885;28;20120;-73
2024/01/05 03:04:03;;;;;;;3.72;0.40;;;10.90;99.90;;;;;;5054580;28;20036;-73
2024/01/05 03:06:29;;;;;;;4.05;1.08;;;10.90;99.90;;;;;;5036815;28;20029;-73
2024/01/05 03:08:55;;;;;;;1.95;0.88;;;10.90;99.90;;;;;;5040586;28;20035;-73
2024/01/05 03:11:21;;;;;;;4.00;0.30;;;11.00;99.90;;;;;;5054482;28;20025;-73
2024/01/05 03:13:46;;;;;;;5.18;0.85;;;11.00;99.90;;;;;;5036430;28;20029;-73
2024/01/05 03:16:12;;;;;;;0.85;0.35;;;10.90;99.90;;;;;;5054231;28;20033;-73
2024/01/05 03:18:38;;;;;;;0.70;0.70;;;10.90;99.90;;;;;;5054144;28;20028;-72
2024/01/05 03:21:04;;;;;;;0.57;0.15;;;10.90;99.90;;;;;;5054204;28;20033;-73
2024/01/05 03:23:29;;;;;;;2.40;1.10;;;10.90;99.90;;;;;;5054399;28;20047;-73
2024/01/05 03:25:56;;;;;;;7.43;0.40;;;10.90;99.90;;;;;;5054188;28;20075;-72
2024/01/05 03:28:22;;;;;;;0.10;0.10;;;10.90;99.90;;;;;;5054263;28;20032;-73
2024/01/05 03:30:48;;;;;;;1.77;1.00;;;10.90;99.90;;;;;;5054036;28;20067;-72
2024/01/05 03:33:14;;;;;;;0.40;0.38;;;10.80;99.90;;;;;;5019631;28;20033;-73
2024/01/05 03:35:41;;;;;;;2.08;0.47;;;10.80;99.90;;;;;;5036101;28;20029;-73
2024/01/05 03:38:07;;;;;;;0.60;0.47;;;10.70;99.90;;;;;;5053839;28;20029;-72
2024/01/05 03:40:33;;;;;;;0.10;0.10;;;10.70;99.90;;;;;;5053850;28;20032;-72
2024/01/05 03:42:58;;;;;;;1.33;0.73;;;10.60;99.90;;;;;;5052178;28;20031;-72
2024/01/05 03:45:24;;;;;;;1.65;0.50;;;10.60;99.90;;;;;;5053469;28;20036;-72
2024/01/05 03:47:50;;;;;;;4.25;0.32;;;10.60;99.90;;;;;;5053389;28;20037;-72
2024/01/05 03:50:16;;;;;;;2.85;0.57;;;10.70;99.90;;;;;;5053711;28;20151;-72
2024/01/05 03:52:42;;;;;;;7.22;0.85;;;10.60;99.90;;;;;;5035991;28;20488;-72
2024/01/05 03:55:08;;;;;;;5.25;0.80;;;10.60;99.90;;;;;;5053393;28;20024;-72
2024/01/05 03:57:33;;;;;;;2.42;0.43;;;10.30;99.90;;;;;;5053811;28;20032;-72
2024/01/05 04:00:00;;;;;;;0.30;0.22;;;10.30;99.90;;;;;;5035682;28;20388;-72
2024/01/05 04:02:26;;;;;;;0.03;0.03;;;10.30;99.90;;;;;;5052889;28;20041;-72
2024/01/05 04:04:52;;;;;;;1.02;0.40;;;10.30;99.90;;;;;;5053525;28;20021;-72
2024/01/05 04:07:17;;;;;;;0.10;0.10;;;10.30;99.90;;;;;;5053431;28;20032;-72
2024/01/05 04:09:43;;;;;;;0.10;0.10;;;10.20;99.90;;;;;;5053560;28;20122;-72
2024/01/05 04:12:11;;;;;;;0.47;0.47;;;10.20;99.90;;;;;;5053076;28;20028;-73
2024/01/05 04:14:37;;;;;;;1.55;0.60;;;10.10;99.90;;;;;;5052917;28;20119;-72
2024/01/05 04:17:03;;;;;;;1.23;0.10;;;10.10;99.90;;;;;;5052997;28;20456;-72
2024/01/05 04:19:29;;;;;;;0.75;0.65;;;10.20;99.90;;;;;;5053265;28;20476;-72
2024/01/05 04:21:55;;;;;;;1.50;0.35;;;10.20;99.90;;;;;;5053038;28;20508;-72
2024/01/05 04:24:21;;;;;;;0.00;0.00;;;10.10;99.90;;;;;;5053279;28;20021;-72
2024/01/05 04:26:48;;;;;;;0.20;0.15;;;10.10;99.90;;;;;;5035389;28;20083;-72
2024/01/05 04:29:14;;;;;;;0.13;0.10;;;10.10;99.90;;;;;;5053010;28;20025;-72
2024/01/05 04:31:40;;;;;;;0.20;0.20;;;10.00;99.90;;;;;;5052937;28;20036;-72
2024/01/05 04:34:05;;;;;;;0.45;0.40;;;9.90;99.90;;;;;;5052992;28;20025;-72
2024/01/05 04:36:31;;;;;;;0.10;0.10;;;9.50;99.90;;;;;;5051664;28;20112;-72
2024/01/05 04:38:57;;;;;;;2.05;0.50;;;9.50;99.90;;;;;;5035378;28;20024;-72
2024/01/05 04:41:23;;;;;;;2.00;0.50;;;9.40;99.90;;;;;;5052770;28;20036;-72
2024/01/05 04:43:50;;;;;;;0.05;0.05;;;9.40;99.90;;;;;;5053167;28;20025;-72
2024/01/05 04:46:18;;;;;;;0.03;0.03;;;9.40;99.90;;;;;;5052567;28;20040;-72
2024/01/05 04:48:44;;;;;;;0.10;0.10;;;9.40;99.90;;;;;;5052863;28;20082;-72
2024/01/05 04:51:10;;;;;;;1.08;0.30;;;9.20;99.90;;;;;;5034961;28;20373;-72
2024/01/05 04:53:36;;;;;;;0.00;0.00;;;9.20;99.90;;;;;;5053047;28;20066;-72
2024/01/05 04:56:03;;;;;;;0.10;0.10;;;9.30;99.90;;;;;;5052624;28;20036;-72
2024/01/05 04:58:28;;;;;;;0.10;0.10;;;9.20;99.90;;;;;;5034338;28;20496;-72
2024/01/05 05:00:54;;;;;;;0.80;0.40;;;9.30;99.90;;;;;;5052721;28;20029;-72
2024/01/05 05:03:20;;;;;;;0.10;0.10;;;9.20;99.90;;;;;;5052737;28;20065;-72
2024/01/05 05:05:46;;;;;;;0.10;0.10;;;9.10;99.90;;;;;;5051784;28;20103;-72
2024/01/05 05:08:14;;;;;;;2.72;0.35;;;9.20;99.90;;;;;;5036691;28;20029;-73
2024/01/05 05:10:40;;;;;;;1.45;0.47;;;9.20;99.90;;;;;;5051213;28;20113;-72
2024/01/05 05:13:06;;;;;;;0.20;0.20;;;9.10;99.90;;;;;;5050982;28;20056;-72
2024/01/05 05:15:32;;;;;;;4.07;0.40;;;9.00;99.90;;;;;;5052502;28;20115;-72
2024/01/05 05:17:57;;;;;;;0.10;0.10;;;8.90;99.90;;;;;;5018131;28;20037;-72
2024/01/05 05:20:23;;;;;;;0.57;0.43;;;9.00;99.90;;;;;;5034650;28;20480;-72
2024/01/05 05:22:49;;;;;;;0.20;0.20;;;8.90;99.90;;;;;;5052264;28;20083;-72
2024/01/05 05:25:15;;;;;;;0.10;0.10;;;8.80;99.90;;;;;;5052287;28;20040;-72
2024/01/05 05:27:41;;;;;;;0.00;0.00;;;8.80;99.90;;;;;;5052046;28;20025;-72
2024/01/05 05:30:08;;;;;;;0.00;0.00;;;8.70;99.90;;;;;;5052408;28;20420;-72
2024/01/05 05:32:34;;;;;;;0.10;0.10;;;8.80;99.90;;;;;;5052292;28;20021;-72
2024/01/05 05:35:00;;;;;;;0.65;0.32;;;8.70;99.90;;;;;;5052639;28;20025;-72
2024/01/05 05:37:26;;;;;;;0.10;0.10;;;8.70;99.90;;;;;;5034277;28;20390;-72
2024/01/05 05:39:52;;;;;;;0.43;0.20;;;8.70;99.90;;;;;;5052312;28;20025;-72
2024/01/05 05:42:18;;;;;;;0.03;0.03;;;8.70;99.90;;;;;;5051837;28;20045;-72
2024/01/05 05:44:44;;;;;;;0.10;0.10;;;8.70;99.90;;;;;;5052338;28;20032;-73
2024/01/05 05:47:10;;;;;;;0.43;0.32;;;8.70;99.90;;;;;;5034246;28;20444;-73
2024/01/05 05:49:36;;;;;;;0.20;0.20;;;8.60;99.90;;;;;;5034227;28;20033;-73
2024/01/05 05:52:04;;;;;;;0.25;0.20;;;8.50;99.90;;;;;;5052443;28;20504;-73
2024/01/05 05:54:30;;;;;;;1.50;1.40;;;8.50;99.90;;;;;;5017813;28;20025;-73
2024/01/05 05:56:56;;;;;;;1.05;0.35;;;8.50;99.90;;;;;;5045982;28;20507;-73
2024/01/05 05:59:22;;;;;;;0.98;0.55;;;8.40;99.90;;;;;;5026263;28;20489;-72
2024/01/05 06:01:48;;;;;;;0.13;0.13;;;8.30;99.90;;;;;;5034013;28;20120;-72
2024/01/05 06:04:14;;;;;;;1.88;0.47;;;8.30;99.90;;;;;;5050656;28;20116;-73
2024/01/05 06:06:40;;;;;;;1.60;0.32;;;8.30;99.90;;;;;;5033913;28;20460;-73
2024/01/05 06:09:07;;;;;;;1.20;1.13;;;8.20;99.90;;;;;;5054967;28;20028;-73
2024/01/05 06:11:33;;;;;;;0.20;0.20;;;8.20;99.90;;;;;;5020901;28;20086;-73
2024/01/05 06:13:59;;;;;;;0.38;0.38;;;8.20;99.90;;;;;;5037662;28;20025;-73
2024/01/05 06:16:25;;;;;;;4.90;0.25;;;8.20;99.90;;;;;;5054226;28;20504;-72
2024/01/05 06:18:52;;;;;;;1.15;0.28;;;8.20;99.90;;;;;;5055223;28;20031;-73
2024/01/05 06:21:18;;;;;;;0.05;0.05;;;8.10;99.90;;;;;;5037771;28;20032;-73
2024/01/05 06:23:44;;;;;;;1.00;0.77;;;8.00;99.90;;;;;;5055484;28;20021;-73
2024/01/05 06:26:10;;;;;;;4.03;0.73;;;8.10;99.90;;;;;;5055065;28;20052;-73
2024/01/05 06:28:36;;;;;;;1.92;0.52;;;8.10;99.90;;;;;;5055279;28;20082;-72
2024/01/05 06:31:02;;;;;;;10.02;1.63;;;8.10;99.90;;;;;;5037312;28;20467;-73
2024/01/05 06:33:28;;;;;;;1.85;0.20;;;8.00;99.90;;;;;;5055200;28;20028;-73
2024/01/05 06:35:54;;;;;;;10.02;0.95;;;8.10;99.90;;;;;;5055317;28;20028;-72
2024/01/05 06:38:20;;;;;;;0.70;0.35;;;8.10;99.90;;;;;;5055324;28;20021;-72
2024/01/05 06:40:46;;;;;;;0.00;0.00;;;8.10;99.90;;;;;;5055084;28;20052;-72
2024/01/05 06:43:12;;;;;;;0.10;0.10;;;8.00;99.90;;;;;;5054970;28;20028;-72
2024/01/05 06:45:38;;;;;;;0.35;0.30;;;8.10;99.90;;;;;;5054722;28;20032;-72
2024/01/05 06:48:05;;;;;;;1.60;0.40;;;8.00;99.90;;;;;;5037214;28;20032;-73
2024/01/05 06:50:30;;;;;;;1.67;0.47;;;8.00;99.90;;;;;;5054845;28;20018;-72
2024/01/05 06:52:56;;;;;;;2.17;0.63;;;7.90;99.90;;;;;;5037011;28;20027;-72
2024/01/05 06:55:22;;;;;;;0.47;0.47;;;7.90;99.90;;;;;;5036767;28;20401;-73
2024/01/05 06:57:48;;;;;;;4.07;0.73;;;7.90;99.90;;;;;;5037198;28;20080;-72
2024/01/05 07:00:14;;;;;;;2.03;0.90;;;7.80;99.90;;;;;;5054505;28;20055;-73
2024/01/05 07:02:43;;;;;;;4.70;0.45;;;7.90;99.90;;;;;;5054555;28;20039;-72
2024/01/05 07:05:08;;;;;;;1.00;0.50;;;7.90;99.90;;;;;;5036814;28;20428;-72
2024/01/05 07:07:34;;;;;;;0.30;0.30;;;7.80;99.90;;;;;;5054551;28;20033;-72
2024/01/05 07:10:01;;;;;;;0.50;0.50;;;7.80;99.90;;;;;;5036511;28;20029;-72
2024/01/05 07:12:29;;;;;;;1.40;0.80;;;7.70;99.90;;;;;;5054396;28;20025;-73
2024/01/05 07:14:55;;;;;;;5.93;0.32;;;7.70;99.90;;;;;;5054393;28;20029;-72
2024/01/05 07:17:21;;;;;;;0.65;0.63;;;7.70;99.90;;;;;;5054312;28;20029;-72
2024/01/05 07:19:47;;;;;;;0.85;0.50;;;7.60;99.90;;;;;;5054303;28;20053;-72
2024/01/05 07:22:12;;;;;;;2.60;0.20;;;7.50;99.90;;;;;;5054240;28;20033;-73
2024/01/05 07:24:42;;;;;;;0.20;0.20;;;7.50;99.90;;;;;;5036192;28;20025;-73
2024/01/05 07:27:10;;;;;;;0.30;0.30;;;7.40;99.90;;;;;;5036516;28;20029;-72
2024/01/05 07:29:36;;;;;;;0.10;0.10;;;7.30;99.90;;;;;;5053980;28;20033;-72
2024/01/05 07:32:02;;;;;;;0.38;0.22;;;7.20;99.90;;;;;;5054209;28;20033;-72
2024/01/05 07:34:27;;;;;;;1.65;0.40;;;7.10;99.90;;;;;;5053896;28;20032;-72
2024/01/05 07:36:53;;;;;;;0.50;0.40;;;7.10;99.90;;;;;;5036225;28;20036;-72
2024/01/05 07:39:19;;;;;;;0.68;0.45;;;7.20;99.90;;;;;;5053813;28;20021;-72
2024/01/05 07:41:45;;;;;;;2.38;0.60;;;7.10;99.90;;;;;;5053981;28;20127;-72
2024/01/05 07:44:11;;;;;;;0.00;0.00;;;7.10;99.90;;;;;;5054024;28;20140;-73
2024/01/05 07:46:43;;;;;;;0.38;0.30;;;7.10;99.90;;;;;;5053732;28;20076;-77
2024/01/05 07:49:09;;;;;;;0.10;0.10;;;7.10;99.90;;;;;;5053941;28;20389;-73
2024/01/05 07:51:35;;;;;;;0.13;0.10;;;7.10;99.90;;;;;;5053473;28;20024;-73
2024/01/05 07:54:01;;;;;;;5.72;1.00;;;7.20;99.90;;;;;;5053610;28;20032;-73
2024/01/05 07:56:27;;;;;;;0.43;0.30;;;7.10;99.90;;;;;;5053570;28;20025;-74
2024/01/05 07:58:53;;;;;;;0.43;0.20;;;7.20;99.90;;;;;;5053621;28;20025;-72
2024/01/05 08:01:20;;;;;;;0.75;0.70;;;7.10;99.90;;;;;;5053277;28;20493;-73
2024/01/05 08:03:47;;;;;;;0.10;0.10;;;7.20;99.90;;;;;;5035898;28;20032;-73
2024/01/05 08:06:18;;;;;;;1.67;0.20;;;7.20;99.90;;;;;;5053429;28;20075;-73
2024/01/05 08:08:45;;;;;;;0.20;0.20;;;7.20;99.90;;;;;;5053168;28;20033;-73
2024/01/05 08:11:11;;;;;;;0.68;0.68;;;7.20;99.90;;;;;;5053488;28;20043;-73
2024/01/05 08:13:37;;;;;;;1.55;0.60;;;7.30;99.90;;;;;;5034936;28;20021;-73
2024/01/05 08:16:03;;;;;;;1.40;0.80;;;7.30;99.90;;;;;;5052486;28;20516;-73
2024/01/05 08:18:29;;;;;;;0.60;0.60;;;7.30;99.90;;;;;;5052716;28;20034;-73
2024/01/05 08:20:55;;;;;;;3.67;1.75;;;7.40;99.90;;;;;;5034697;28;20021;-73
2024/01/05 08:23:21;;;;;;;0.45;0.45;;;7.50;99.90;;;;;;5052783;28;20082;-73
2024/01/05 08:25:47;;;;;;;0.50;0.50;;;7.50;99.90;;;;;;5034575;28;20029;-73
2024/01/05 08:28:13;;;;;;;0.10;0.10;;;7.50;99.90;;;;;;5052175;28;20379;-73
2024/01/05 08:30:39;;;;;;;0.65;0.60;;;7.50;99.90;;;;;;5052315;28;20040;-73
2024/01/05 08:33:06;;;;;;;2.72;0.45;;;7.50;99.90;;;;;;5052874;28;20412;-73
2024/01/05 08:35:33;;;;;;;1.83;1.30;;;7.60;99.90;;;;;;5053064;28;20037;-73
2024/01/05 08:37:58;;;;;;;1.15;1.05;;;7.60;99.90;;;;;;5052518;28;20024;-73
2024/01/05 08:40:26;;;;;;;0.10;0.10;;;7.60;99.90;;;;;;5052903;28;20025;-73
2024/01/05 08:42:55;;;;;;;1.40;0.60;;;7.60;99.90;;;;;;5034896;28;20049;-73
2024/01/05 08:45:21;;;;;;;1.38;0.90;;;7.60;99.90;;;;;;5035016;28;20039;-73
2024/01/05 08:47:47;;;;;;;0.15;0.15;;;7.60;99.90;;;;;;5052375;28;20584;-73
2024/01/05 08:50:13;;;;;;;0.57;0.57;;;7.60;99.90;;;;;;5053014;28;20051;-73
2024/01/05 08:52:39;;;;;;;0.52;0.45;;;7.50;99.90;;;;;;5052330;28;20036;-73
2024/01/05 08:55:05;;;;;;;2.25;0.90;;;7.50;99.90;;;;;;5052765;28;20440;-73
2024/01/05 08:57:35;;;;;;;0.57;0.57;;;7.50;99.90;;;;;;5034855;28;20025;-73
2024/01/05 09:00:01;;;;;;;0.85;0.75;;;7.50;99.90;;;;;;5052502;28;20017;-73
2024/01/05 09:02:27;;;;;;;3.13;1.40;;;7.40;99.90;;;;;;5052649;28;20497;-73
2024/01/05 09:04:53;;;;;;;3.72;1.55;;;7.40;99.90;;;;;;5052145;28;20466;-73
2024/01/05 09:07:20;;;;;;;0.63;0.63;;;7.40;99.90;;;;;;5052610;28;20132;-73
2024/01/05 09:09:46;;;;;;;1.02;0.60;;;7.40;99.90;;;;;;5034580;28;20037;-73
2024/01/05 09:12:11;;;;;;;0.45;0.45;;;7.30;99.90;;;;;;5052242;28;20487;-73
2024/01/05 09:14:37;;;;;;;0.57;0.47;;;7.30;99.90;;;;;;5052152;28;20025;-73
2024/01/05 09:17:04;;;;;;;1.10;0.35;;;7.30;99.90;;;;;;5052723;28;20040;-73
2024/01/05 09:19:29;;;;;;;1.33;0.55;;;7.30;99.90;;;;;;5034195;28;20051;-73
2024/01/05 09:21:55;;;;;;;2.40;0.90;;;7.40;99.90;;;;;;5052563;28;20083;-72
2024/01/05 09:24:21;;;;;;;1.02;1.02;;;7.40;99.90;;;;;;5052164;28;20108;-73
2024/01/05 09:26:49;;;;;;;3.35;0.93;;;7.40;99.90;;;;;;5052463;28;20509;-73
2024/01/05 09:29:15;;;;;;;1.52;1.27;;;7.40;99.90;;;;;;5052123;28;20033;-73
2024/01/05 09:31:46;;;;;;;5.22;1.30;;;7.50;99.90;;;;;;5052376;28;20025;-72
2024/01/05 09:34:11;;;;;;;1.35;0.70;;;7.50;99.90;;;;;;5034166;28;20115;-73
2024/01/05 09:36:41;;;;;;;1.27;1.00;;;7.50;99.90;;;;;;5052173;28;20100;-73
2024/01/05 09:39:09;;;;;;;0.75;0.50;;;7.60;99.90;;;;;;5052164;28;20044;-73
2024/01/05 09:41:35;;;;;;;1.38;0.90;;;7.50;99.90;;;;;;5052318;28;20033;-72
2024/01/05 09:44:02;;;;;;;3.78;1.52;;;7.50;99.90;;;;;;5055918;28;20490;-72
2024/01/05 09:46:28;;;;;;;0.55;0.55;;;7.60;99.90;;;;;;5056501;28;20402;-73
2024/01/05 09:48:57;;;;;;;0.80;0.77;;;7.50;99.90;;;;;;5038008;28;20033;-72
2024/01/05 09:51:29;;;;;;;1.05;0.60;;;7.50;99.90;;;;;;5056059;28;20033;-73
2024/01/05 09:53:55;;;;;;;0.45;0.32;;;7.50;99.90;;;;;;5038032;28;20493;-73
2024/01/05 09:56:22;;;;;;;0.65;0.32;;;7.50;99.90;;;;;;5054444;28;20108;-72
2024/01/05 09:58:51;;;;;;;0.75;0.68;;;7.50;99.90;;;;;;5021257;28;20108;-73
2024/01/05 10:01:33;;;;;;;0.80;0.65;;;7.50;99.90;;;;;;5055849;28;20025;-72
2024/01/05 10:04:01;;;;;;;0.68;0.68;;;7.50;99.90;;;;;;5025883;28;20092;-72
2024/01/05 10:06:28;;;;;;;1.23;0.95;;;7.50;99.90;;;;;;5055656;28;20021;-73
2024/01/05 10:08:55;;;;;;;1.25;0.75;;;7.60;99.90;;;;;;5055440;28;20029;-73
2024/01/05 10:11:29;;;;;;;2.45;1.35;;;7.50;99.90;;;;;;5055923;28;20064;-72
2024/01/05 10:13:57;;;;;;;1.40;1.30;;;7.50;99.90;;;;;;5055401;28;20045;-72
2024/01/05 10:16:24;;;;;;;2.25;1.48;;;7.50;99.90;;;;;;5055584;28;20029;-73
2024/01/05 10:18:50;;;;;;;0.47;0.40;;;7.50;99.90;;;;;;5054986;28;20121;-73
2024/01/05 10:21:18;;;;;;;1.88;1.20;;;7.40;99.90;;;;;;5055355;28;20033;-72
2024/01/05 10:23:44;;;;;;;0.70;0.50;;;7.40;99.90;;;;;;5054983;28;20116;-72
2024/01/05 10:26:17;;;;;;;1.55;0.82;;;7.50;99.90;;;;;;5055092;28;20017;-72
2024/01/05 10:28:43;;;;;;;0.60;0.55;;;7.50;99.90;;;;;;5037520;28;20452;-72
2024/01/05 10:31:13;;;;;;;1.10;0.65;;;7.50;99.90;;;;;;5055871;28;20029;-73
2024/01/05 10:33:54;;;;;;;3.25;1.30;;;7.50;99.90;;;;;;5037283;28;20071;-73
2024/01/05 10:36:21;;;;;;;0.10;0.10;;;7.50;99.90;;;;;;5037317;28;20040;-73
2024/01/05 10:38:48;;;;;;;0.30;0.30;;;7.50;99.90;;;;;;5055148;28;20052;-73
2024/01/05 10:41:18;;;;;;;0.85;0.40;;;7.40;99.90;;;;;;5055179;28;20037;-73
2024/01/05 10:43:44;;;;;;;0.30;0.30;;;7.50;99.90;;;;;;5055398;28;20082;-73
2024/01/05 10:46:20;;;;;;;0.17;0.17;;;7.50;99.90;;;;;;5054993;28;20021;-73
2024/01/05 10:48:46;;;;;;;0.95;0.75;;;7.50;99.90;;;;;;5054833;28;20033;-73
2024/01/05 10:51:15;;;;;;;4.20;0.80;;;7.60;99.90;;;;;;5054720;28;20112;-73
2024/01/05 10:53:47;;;;;;;1.98;1.30;;;7.60;99.90;;;;;;5036592;28;20098;-73
2024/01/05 10:56:13;;;;;;;1.95;0.28;;;7.50;99.90;;;;;;5054476;28;20029;-73
2024/01/05 10:58:39;;;;;;;0.73;0.73;;;7.60;99.90;;;;;;5037079;28;20017;-73
2024/01/05 11:01:08;;;;;;;0.43;0.43;;;7.60;99.90;;;;;;5036307;28;20543;-73
2024/01/05 11:03:39;;;;;;;1.67;1.35;;;7.70;99.90;;;;;;5036797;28;20021;-73
2024/01/05 11:06:10;;;;;;;4.32;1.15;;;7.70;99.90;;;;;;5054508;28;20033;-73
2024/01/05 11:08:52;;;;;;;3.80;2.30;;;7.70;99.90;;;;;;5054713;28;20117;-73
2024/01/05 11:11:33;;;;;;;4.57;2.20;;;7.80;99.90;;;;;;5036695;28;20354;-73
2024/01/05 11:14:32;;;;;;;4.90;1.65;;;7.80;99.90;;;;;;5051025;28;20029;-73
2024/01/05 11:17:10;;;;;;;9.95;2.08;;;7.90;99.90;;;;;;5054172;28;20033;-73
2024/01/05 11:20:17;;;;;;;4.72;1.63;;;7.90;99.90;;;;;;5041110;28;20025;-73
2024/01/05 11:22:47;;;;;;;0.82;0.75;;;7.90;99.90;;;;;;5031906;28;20037;-73
2024/01/05 11:25:15;;;;;;;2.67;1.52;;;8.00;99.90;;;;;;5054285;28;20071;-73
2024/01/05 11:27:46;;;;;;;3.70;2.08;;;7.90;99.90;;;;;;5036299;28;20083;-73
2024/01/05 11:30:15;;;;;;;2.08;1.77;;;8.00;99.90;;;;;;5053844;28;20029;-73
2024/01/05 11:32:46;;;;;;;0.80;0.80;;;7.90;99.90;;;;;;5054024;28;20517;-73
2024/01/05 11:35:17;;;;;;;3.55;1.35;;;8.00;99.90;;;;;;5054095;28;20064;-73
2024/01/05 11:37:44;;;;;;;2.63;1.80;;;8.00;99.90;;;;;;5054034;28;20057;-73
2024/01/05 11:40:31;;;;;;;1.70;1.52;;;8.10;99.90;;;;;;5053991;28;20056;-73
2024/01/05 11:42:58;;;;;;;2.22;0.95;;;8.10;99.90;;;;;;5053722;28;20036;-73
2024/01/05 11:45:57;;;;;;;3.35;1.63;;;8.10;99.90;;;;;;5053348;28;20028;-73
2024/01/05 11:48:34;;;;;;;1.80;1.63;;;8.10;99.90;;;;;;5009694;28;20316;-73
2024/01/05 11:51:09;;;;;;;3.70;1.17;;;8.10;99.90;;;;;;5053711;28;20025;-73
2024/01/05 11:53:36;;;;;;;1.35;0.95;;;8.20;99.90;;;;;;5053627;28;20031;-73
2024/01/05 11:56:07;;;;;;;1.45;1.08;;;8.20;99.90;;;;;;5035902;28;20029;-73
2024/01/05 11:58:38;;;;;;;2.78;0.90;;;8.20;99.90;;;;;;5053456;28;20020;-73
2024/01/05 12:01:11;;;;;;;4.40;2.47;;;8.20;99.90;;;;;;5053310;28;20473;-73
2024/01/05 12:03:38;;;;;;;1.65;1.20;;;8.10;99.90;;;;;;5035667;28;20357;-73
2024/01/05 12:06:05;;;;;;;1.60;1.50;;;8.20;99.90;;;;;;5052732;28;20032;-73
2024/01/05 12:08:32;;;;;;;1.02;0.93;;;8.20;99.90;;;;;;5018834;28;20123;-73
2024/01/05 12:11:00;;;;;;;0.38;0.38;;;8.10;99.90;;;;;;5035549;28;20098;-73
2024/01/05 12:13:32;;;;;;;2.10;1.73;;;8.20;99.90;;;;;;5053034;28;20028;-73
2024/01/05 12:16:02;;;;;;;2.05;1.08;;;8.20;99.90;;;;;;5052879;28;20074;-73
2024/01/05 12:18:32;;;;;;;1.85;1.55;;;8.20;99.90;;;;;;5053183;28;20488;-73
2024/01/05 12:21:03;;;;;;;6.25;1.77;;;8.20;99.90;;;;;;5052814;28;20032;-73
2024/01/05 12:23:30;;;;;;;0.73;0.73;;;8.20;99.90;;;;;;5035398;28;20033;-73
2024/01/05 12:26:02;;;;;;;0.30;0.30;;;8.20;99.90;;;;;;5053042;28;20033;-73
2024/01/05 12:28:30;;;;;;;2.80;1.77;;;8.20;99.90;;;;;;5052794;28;20032;-73
2024/01/05 12:30:59;;;;;;;0.98;0.73;;;8.30;99.90;;;;;;5052906;28;20102;-73
2024/01/05 12:33:30;;;;;;;1.27;1.20;;;8.30;99.90;;;;;;5052986;28;20056;-73
2024/01/05 12:35:56;;;;;;;2.08;1.42;;;8.20;99.90;;;;;;5034965;28;20029;-73
2024/01/05 12:38:23;;;;;;;2.38;1.10;;;8.30;99.90;;;;;;5052817;28;20096;-73
2024/01/05 12:40:50;;;;;;;2.28;1.27;;;8.20;99.90;;;;;;5035191;28;20124;-73
2024/01/05 12:43:17;;;;;;;1.00;0.75;;;8.30;99.90;;;;;;5052845;28;20029;-73
2024/01/05 12:45:46;;;;;;;3.08;1.83;;;8.40;99.90;;;;;;5034865;28;20071;-73
2024/01/05 12:48:13;;;;;;;6.20;1.67;;;8.30;99.90;;;;;;5052449;28;20043;-74
2024/01/05 12:50:38;;;;;;;2.72;1.98;;;8.30;99.90;;;;;;5052595;28;20115;-73
2024/01/05 12:53:18;;;;;;;2.92;1.77;;;8.30;99.90;;;;;;5052424;28;20434;-73